Hauptseite
METAR-TAF:

METAR-TAF

Flughäfen :

Flughafen Jakutsk

Jakutsk, Russland

Breite: 62-01N, Länge: 129-43E, Höhe: 103 m

Beobachtung

Neuester Wetterbericht von vor 39 Minuten, um 17:30 UTC
Wind 2 kt aus West/Nordwest
Temperatur -32°C
Luftfeuchtigkeit 74%
Luftdruck 1023 hPa
Sichtweite 10 km oder mehr
keine Wolken unter 1500 m und keine Kumulonimbus oder Gewitterwolken

METAR: UEEE 201730Z 29001MPS CAVOK M32/M35 Q1023 R23L/450055 NOSIG RMK QFE759

Zeit: 03:09 (18:09 UTC)

Prognose

Neuester Wetterbericht von vor 1 Stunde und 9 Minuten, um 17:00 UTC
Gültige Prognose vom 20 um 18 UTC bis 21 um 24 UTC
Wind 6 kt aus West/Nordwest
Sichtweite 10 km oder mehr
keine Wolken unter 1500 m und keine Kumulonimbus oder Gewitterwolken
Zeitweise
vom 20 um 18 UTC bis 20 um 23 UTC
Sichtweite: 0300 m
in der Höhe von 300 ft
Nebel

TAF: UEEE 201700Z 2018/2124 30003MPS CAVOK TEMPO 2018/2023 0300 FG VV003

Wetterbeobachtungen und Prognosen von mehr als 4000 Flughäfen (METAR und TAF Bericht).

Die verfügbaren Stationen werden durch gelbe und rote Markierungen auf der Karte dargestellt.

Führen Sie die Maus auf sie, um den Namen der Station zu sehen.

Darauf klicken, um die Beobachtung von Wetterbeobachtungen und Prognosen zu sehen.

Um die Karte zu ändern : klicken Sie auf den grünen Tasten mit einem schwarzen Kreuz Zum Vergrößern, auf den grünen Button mit einem Gedankenstrich zu verkleinern, oder auf die grünen Pfeile für benachbarte Karten.


METAR-TAF: